Time;durP1;ratioP1;P1;durP2;ratioP2;P2;SDS_P1;SDS_P2;PMS_P1;PMS_P2;Temp;Humidity;BMP_temperature;BMP_pressure;BME280_temperature;BME280_humidity;BME280_pressure;Samples;Min_cycle;Max_cycle;Signal;HPM_P1;HPM_P2
2023/10/18 00:01:40;;;;;;;11.90;5.82;;;5.30;85.00;;;;;;5056359;28;20191;-88
2023/10/18 00:04:07;;;;;;;7.35;5.80;;;5.30;85.10;;;;;;5055767;28;20289;-88
2023/10/18 00:06:34;;;;;;;10.80;6.53;;;5.30;85.50;;;;;;5055768;28;20214;-88
2023/10/18 00:09:38;;;;;;;7.60;6.10;;;5.20;86.80;;;;;;5055829;28;20190;-89
2023/10/18 00:11:50;;;;;;;8.30;6.45;;;5.20;86.20;;;;;;5055545;28;20296;-88
2023/10/18 00:14:18;;;;;;;6.97;5.28;;;5.20;86.00;;;;;;5056011;28;20191;-88
2023/10/18 00:16:45;;;;;;;10.52;6.53;;;5.30;86.90;;;;;;5055392;28;20236;-88
2023/10/18 00:19:13;;;;;;;8.63;7.20;;;5.30;85.90;;;;;;5055361;28;20669;-87
2023/10/18 00:21:40;;;;;;;13.95;6.20;;;5.20;86.40;;;;;;5055850;28;20282;-88
2023/10/18 00:24:09;;;;;;;13.25;7.75;;;5.30;87.50;;;;;;5055755;28;20249;-88
2023/10/18 00:26:36;;;;;;;8.18;6.20;;;5.20;87.90;;;;;;5055529;28;20229;-88
2023/10/18 00:29:04;;;;;;;11.35;6.68;;;5.30;88.80;;;;;;5055689;28;20191;-88
2023/10/18 00:31:31;;;;;;;8.90;6.60;;;5.30;88.60;;;;;;5055685;28;20337;-88
2023/10/18 00:33:58;;;;;;;10.98;6.13;;;5.20;88.10;;;;;;5054804;28;20637;-87
2023/10/18 00:36:24;;;;;;;10.23;7.35;;;5.20;89.00;;;;;;5055344;28;20250;-88
2023/10/18 00:38:53;;;;;;;10.80;7.27;;;5.20;89.70;;;;;;5055604;28;20195;-88
2023/10/18 00:41:22;;;;;;;17.55;8.02;;;5.20;89.90;;;;;;5055565;28;20440;-88
2023/10/18 00:43:52;;;;;;;13.98;7.97;;;5.20;90.20;;;;;;5055172;28;20784;-87
2023/10/18 00:46:22;;;;;;;11.80;6.72;;;5.20;90.40;;;;;;5055064;28;20268;-87
2023/10/18 00:48:49;;;;;;;10.57;7.35;;;5.30;90.80;;;;;;5054753;28;20682;-88
2023/10/18 00:51:17;;;;;;;15.93;8.27;;;5.30;91.00;;;;;;5054998;28;20241;-88
2023/10/18 00:53:46;;;;;;;11.07;7.35;;;5.40;91.20;;;;;;5055121;28;20211;-88
2023/10/18 00:56:15;;;;;;;11.95;6.85;;;5.40;91.40;;;;;;5054769;28;20194;-88
2023/10/18 00:58:44;;;;;;;11.85;7.93;;;5.40;91.60;;;;;;5055211;28;20233;-88
2023/10/18 01:01:11;;;;;;;15.48;7.85;;;5.40;91.70;;;;;;5054783;28;20236;-88
2023/10/18 01:03:45;;;;;;;11.85;8.48;;;5.40;91.70;;;;;;5055129;28;20546;-88
2023/10/18 01:06:16;;;;;;;16.00;7.20;;;5.40;91.60;;;;;;5054803;28;20191;-88
2023/10/18 01:08:44;;;;;;;25.90;9.27;;;5.50;91.80;;;;;;5054444;28;20171;-88
2023/10/18 01:11:12;;;;;;;20.30;8.82;;;5.50;91.70;;;;;;5054639;28;20248;-88
2023/10/18 01:13:42;;;;;;;16.33;9.05;;;5.40;92.00;;;;;;5054799;28;20214;-88
2023/10/18 01:16:13;;;;;;;13.63;7.47;;;5.40;92.60;;;;;;5054945;28;20249;-88
2023/10/18 01:18:43;;;;;;;10.85;7.35;;;5.40;92.40;;;;;;5053923;28;20179;-88
2023/10/18 01:21:16;;;;;;;11.32;8.68;;;5.40;93.10;;;;;;5054663;28;20516;-87
2023/10/18 01:23:49;;;;;;;12.02;7.50;;;5.50;92.80;;;;;;5054950;28;20195;-88
2023/10/18 01:26:18;;;;;;;11.73;7.50;;;5.50;93.00;;;;;;5054065;28;20528;-87
2023/10/18 01:28:45;;;;;;;12.88;8.35;;;5.60;93.00;;;;;;5053944;28;20210;-88
2023/10/18 01:31:13;;;;;;;16.73;7.28;;;5.60;92.90;;;;;;5053376;28;20179;-88
2023/10/18 01:33:42;;;;;;;10.63;8.02;;;5.70;93.00;;;;;;5054024;28;20219;-87
2023/10/18 01:36:12;;;;;;;12.70;8.07;;;5.80;92.70;;;;;;5054442;28;20621;-88
2023/10/18 01:38:42;;;;;;;25.05;8.85;;;5.80;92.20;;;;;;5054005;28;20193;-88
2023/10/18 01:41:12;;;;;;;10.45;7.93;;;5.90;91.90;;;;;;5053964;28;20523;-88
2023/10/18 01:43:43;;;;;;;11.35;8.65;;;5.80;91.80;;;;;;5054079;28;20187;-88
2023/10/18 01:46:13;;;;;;;15.35;8.13;;;5.90;91.80;;;;;;5054231;28;20174;-88
2023/10/18 01:48:41;;;;;;;14.82;9.38;;;5.80;91.50;;;;;;5053993;28;20214;-87
2023/10/18 01:51:09;;;;;;;20.45;8.80;;;5.90;91.70;;;;;;5053625;28;20221;-88
2023/10/18 01:53:38;;;;;;;16.45;9.23;;;6.00;91.60;;;;;;5053472;28;20268;-88
2023/10/18 01:56:07;;;;;;;36.05;10.32;;;5.90;91.60;;;;;;5053759;28;20194;-88
2023/10/18 01:58:36;;;;;;;18.70;11.30;;;5.90;91.70;;;;;;5054026;28;20194;-89
2023/10/18 02:01:09;;;;;;;15.35;9.88;;;5.90;92.00;;;;;;5053213;28;20672;-88
2023/10/18 02:03:36;;;;;;;14.35;9.00;;;6.00;92.40;;;;;;5053892;28;20211;-88
2023/10/18 02:06:06;;;;;;;12.93;9.52;;;6.00;92.70;;;;;;5053988;28;20199;-88
2023/10/18 02:08:34;;;;;;;14.30;9.25;;;6.00;93.00;;;;;;5053640;28;20175;-89
2023/10/18 02:11:05;;;;;;;15.60;9.63;;;6.10;93.20;;;;;;5053064;28;20198;-88
2023/10/18 02:13:32;;;;;;;14.13;9.02;;;6.10;93.10;;;;;;5053881;28;20617;-89
2023/10/18 02:15:59;;;;;;;31.80;10.23;;;6.00;93.10;;;;;;5053719;28;20194;-88
2023/10/18 02:18:27;;;;;;;12.98;9.70;;;6.00;93.30;;;;;;5053269;28;20199;-88
2023/10/18 02:20:54;;;;;;;21.70;11.13;;;6.10;93.70;;;;;;5052665;28;20209;-88
2023/10/18 02:23:22;;;;;;;33.10;10.45;;;6.10;93.70;;;;;;5053655;28;20236;-88
2023/10/18 02:25:50;;;;;;;16.60;10.73;;;6.10;93.70;;;;;;5053080;28;20218;-88
2023/10/18 02:28:27;;;;;;;26.45;9.38;;;6.10;93.60;;;;;;5053689;28;20528;-88
2023/10/18 02:31:07;;;;;;;20.83;9.35;;;6.00;94.10;;;;;;5052104;28;20241;-88
2023/10/18 02:33:38;;;;;;;20.40;9.68;;;6.00;94.40;;;;;;5052826;28;20233;-88
2023/10/18 02:36:10;;;;;;;14.30;9.88;;;6.00;94.60;;;;;;5053245;28;20198;-88
2023/10/18 02:38:38;;;;;;;11.77;8.85;;;6.00;94.30;;;;;;5053271;28;20186;-89
2023/10/18 02:41:15;;;;;;;19.55;9.20;;;6.00;94.60;;;;;;5052847;28;20269;-88
2023/10/18 02:43:45;;;;;;;12.82;9.60;;;6.10;94.80;;;;;;5055724;28;20240;-88
2023/10/18 02:46:13;;;;;;;11.57;8.55;;;6.20;94.50;;;;;;5057370;28;20175;-88
2023/10/18 02:48:44;;;;;;;10.82;8.90;;;6.20;93.90;;;;;;5057465;28;20313;-88
2023/10/18 02:51:12;;;;;;;18.90;8.68;;;6.20;94.00;;;;;;5057226;28;20179;-88
2023/10/18 02:53:41;;;;;;;12.90;8.65;;;6.20;94.00;;;;;;5057148;28;20314;-88
2023/10/18 02:56:10;;;;;;;15.30;8.32;;;6.20;93.90;;;;;;5057213;28;20285;-88
2023/10/18 02:58:38;;;;;;;11.82;8.30;;;6.30;93.80;;;;;;5057140;28;20650;-88
2023/10/18 03:01:08;;;;;;;12.13;9.18;;;6.30;93.60;;;;;;5056657;28;20711;-88
2023/10/18 03:03:39;;;;;;;12.70;9.45;;;6.30;93.60;;;;;;5056847;28;20229;-88
2023/10/18 03:06:12;;;;;;;18.90;8.70;;;6.30;93.50;;;;;;5057467;28;20526;-88
2023/10/18 03:08:42;;;;;;;11.48;7.85;;;6.30;93.50;;;;;;5057222;28;20175;-88
2023/10/18 03:11:11;;;;;;;12.35;8.27;;;6.40;93.60;;;;;;5056137;28;20183;-88
2023/10/18 03:13:38;;;;;;;16.77;8.82;;;6.40;93.50;;;;;;5056842;28;20707;-89
2023/10/18 03:16:15;;;;;;;21.60;9.15;;;6.40;93.30;;;;;;5057093;28;20290;-89
2023/10/18 03:18:44;;;;;;;15.18;9.15;;;6.40;93.30;;;;;;5056999;28;20260;-89
2023/10/18 03:21:20;;;;;;;21.88;9.30;;;6.30;93.40;;;;;;5056596;28;20183;-88
2023/10/18 03:23:50;;;;;;;10.40;8.93;;;6.20;93.80;;;;;;5056983;28;20186;-88
2023/10/18 03:26:22;;;;;;;27.05;9.82;;;6.30;93.60;;;;;;5057193;28;20791;-89
2023/10/18 03:28:50;;;;;;;17.13;11.63;;;6.30;93.90;;;;;;5056602;28;20179;-88
2023/10/18 03:31:27;;;;;;;14.25;12.18;;;6.20;93.90;;;;;;5056455;28;20198;-88
2023/10/18 03:34:01;;;;;;;16.83;10.00;;;6.20;94.30;;;;;;5056829;28;20291;-87
2023/10/18 03:36:32;;;;;;;17.10;10.57;;;6.20;94.50;;;;;;5055968;28;20194;-89
2023/10/18 03:39:01;;;;;;;9.85;8.63;;;6.20;94.60;;;;;;5056795;28;20186;-88
2023/10/18 03:41:33;;;;;;;12.98;8.98;;;6.20;94.50;;;;;;5056312;28;20527;-88
2023/10/18 03:44:06;;;;;;;13.07;10.07;;;6.30;94.80;;;;;;5056740;28;20182;-88
2023/10/18 03:46:46;;;;;;;33.65;10.50;;;6.30;95.10;;;;;;5056227;28;20183;-88
2023/10/18 03:49:22;;;;;;;13.32;9.70;;;6.30;95.10;;;;;;5056003;28;20693;-88
2023/10/18 03:51:53;;;;;;;18.50;8.85;;;6.30;95.10;;;;;;5056188;28;20181;-87
2023/10/18 03:54:23;;;;;;;21.10;8.80;;;6.30;95.10;;;;;;5055830;28;20290;-88
2023/10/18 03:56:53;;;;;;;17.70;9.73;;;6.20;95.00;;;;;;5056065;28;20194;-88
2023/10/18 03:59:21;;;;;;;10.25;8.88;;;6.20;95.50;;;;;;5056045;28;20661;-88
2023/10/18 04:02:06;;;;;;;16.45;10.18;;;6.20;96.20;;;;;;5055855;28;20187;-87
2023/10/18 04:04:35;;;;;;;13.52;9.18;;;6.20;96.50;;;;;;5056283;28;20189;-87
2023/10/18 04:07:13;;;;;;;17.55;8.30;;;6.20;96.40;;;;;;5055881;28;20282;-88
2023/10/18 04:09:45;;;;;;;11.07;8.75;;;6.30;96.20;;;;;;5055515;28;20182;-88
2023/10/18 04:12:16;;;;;;;10.65;8.70;;;6.30;95.90;;;;;;5055705;28;20233;-88
2023/10/18 04:14:50;;;;;;;13.77;8.55;;;6.40;95.70;;;;;;5056041;28;20199;-88
2023/10/18 04:17:31;;;;;;;16.38;9.90;;;6.40;95.50;;;;;;5056120;28;20552;-88
2023/10/18 04:20:00;;;;;;;9.98;8.68;;;6.40;95.60;;;;;;5055272;28;20191;-88
2023/10/18 04:22:29;;;;;;;11.82;9.50;;;6.50;95.70;;;;;;5055565;28;20270;-88
2023/10/18 04:24:56;;;;;;;13.27;8.80;;;6.50;95.70;;;;;;5055212;28;20276;-88
2023/10/18 04:27:23;;;;;;;14.18;10.15;;;6.50;95.70;;;;;;5055724;28;20195;-88
2023/10/18 04:29:55;;;;;;;14.13;8.82;;;6.50;95.60;;;;;;5055758;28;20521;-88
2023/10/18 04:32:23;;;;;;;9.93;8.18;;;6.50;95.40;;;;;;5055373;28;20568;-87
2023/10/18 04:34:50;;;;;;;10.00;7.95;;;6.50;95.30;;;;;;5055187;28;20297;-88
2023/10/18 04:37:19;;;;;;;10.18;8.32;;;6.50;95.10;;;;;;5055576;28;20199;-88
2023/10/18 04:39:47;;;;;;;10.20;7.80;;;6.60;95.00;;;;;;5055256;28;20711;-88
2023/10/18 04:42:17;;;;;;;11.00;8.80;;;6.60;94.70;;;;;;5054814;28;20707;-88
2023/10/18 04:44:48;;;;;;;8.57;6.72;;;6.60;94.50;;;;;;5053547;28;20244;-85
2023/10/18 04:47:15;;;;;;;11.05;8.55;;;6.60;94.40;;;;;;5054364;28;20219;-85
2023/10/18 04:49:50;;;;;;;9.73;7.35;;;6.70;94.30;;;;;;5054710;28;20195;-88
2023/10/18 04:52:28;;;;;;;11.52;8.55;;;6.70;94.10;;;;;;5054462;28;20182;-88
2023/10/18 04:55:00;;;;;;;11.05;8.60;;;6.70;93.80;;;;;;5054365;28;20722;-88
2023/10/18 04:57:28;;;;;;;9.65;7.72;;;6.70;94.10;;;;;;5054342;28;20186;-88
2023/10/18 04:59:59;;;;;;;16.15;10.00;;;6.70;93.90;;;;;;5053883;28;20229;-88
2023/10/18 05:02:29;;;;;;;9.70;7.85;;;6.60;94.00;;;;;;5053645;28;20270;-88
2023/10/18 05:04:57;;;;;;;9.05;7.55;;;6.60;94.10;;;;;;5053917;28;20182;-88
2023/10/18 05:07:40;;;;;;;10.82;8.60;;;6.50;94.00;;;;;;5053529;28;20711;-88
2023/10/18 05:10:16;;;;;;;9.30;8.07;;;6.50;94.30;;;;;;5054220;28;20189;-88
2023/10/18 05:12:53;;;;;;;10.77;8.32;;;6.60;94.30;;;;;;5053706;28;20198;-88
2023/10/18 05:15:28;;;;;;;9.20;7.82;;;6.60;94.10;;;;;;5053689;28;20179;-88
2023/10/18 05:17:59;;;;;;;9.52;8.05;;;6.60;94.30;;;;;;5053522;28;20649;-88
2023/10/18 05:20:41;;;;;;;10.77;7.20;;;6.70;94.20;;;;;;5051545;28;20269;-88
2023/10/18 05:23:09;;;;;;;13.13;8.70;;;6.70;94.00;;;;;;5044210;28;20191;-88
2023/10/18 05:25:45;;;;;;;32.78;18.35;;;6.60;93.90;;;;;;5053669;28;20594;-88
2023/10/18 05:28:15;;;;;;;37.92;19.85;;;6.60;94.00;;;;;;5053703;28;20253;-88
2023/10/18 05:36:29;;;;;;;32.00;16.98;;;6.70;93.40;;;;;;5053488;28;20220;-88
2023/10/18 05:39:05;;;;;;;25.70;17.55;;;6.70;93.60;;;;;;5051041;28;20285;-88
2023/10/18 05:41:45;;;;;;;24.80;15.85;;;6.70;93.50;;;;;;5053324;28;20187;-88
2023/10/18 05:44:12;;;;;;;17.13;9.77;;;6.70;93.60;;;;;;5053614;28;20193;-88
2023/10/18 05:46:39;;;;;;;17.77;10.80;;;6.70;93.60;;;;;;5052351;28;20193;-88
2023/10/18 05:49:15;;;;;;;19.33;11.48;;;6.70;93.60;;;;;;5052389;28;20218;-88
2023/10/18 05:51:52;;;;;;;16.70;12.20;;;6.70;93.50;;;;;;5053004;28;20721;-88
2023/10/18 05:54:21;;;;;;;17.35;10.70;;;6.70;93.50;;;;;;5052741;28;20199;-87
2023/10/18 05:56:56;;;;;;;12.85;9.77;;;6.70;93.60;;;;;;5052139;28;20191;-86
2023/10/18 05:59:31;;;;;;;13.73;9.80;;;6.70;93.70;;;;;;5051854;28;20189;-88
2023/10/18 06:02:00;;;;;;;13.40;10.15;;;6.70;93.80;;;;;;5033091;28;20187;-85
2023/10/18 06:04:29;;;;;;;12.40;9.98;;;6.70;93.80;;;;;;5044411;28;20675;-87
2023/10/18 06:06:59;;;;;;;13.77;9.73;;;6.70;93.70;;;;;;5052750;28;20190;-88
2023/10/18 06:09:32;;;;;;;16.25;10.98;;;6.70;93.70;;;;;;5052549;28;20245;-87
2023/10/18 06:12:02;;;;;;;14.52;10.38;;;6.80;94.00;;;;;;5052259;28;20186;-87
2023/10/18 06:14:40;;;;;;;14.93;9.15;;;6.80;93.90;;;;;;5052624;28;20206;-87
2023/10/18 06:17:12;;;;;;;14.02;10.38;;;6.80;93.90;;;;;;5051818;28;20186;-88
2023/10/18 06:19:41;;;;;;;13.00;9.02;;;6.90;94.00;;;;;;5052643;28;20530;-87
2023/10/18 06:22:16;;;;;;;12.15;9.63;;;6.90;94.20;;;;;;5052324;28;20191;-88
2023/10/18 06:24:48;;;;;;;13.43;9.07;;;6.90;93.90;;;;;;5052046;28;20251;-87
2023/10/18 06:27:18;;;;;;;15.48;9.98;;;7.00;94.00;;;;;;5052057;28;20661;-87
2023/10/18 06:29:49;;;;;;;11.60;8.65;;;7.00;93.80;;;;;;5052322;28;20595;-88
2023/10/18 06:32:16;;;;;;;19.30;9.95;;;7.00;93.80;;;;;;5051892;28;20183;-87
2023/10/18 06:34:44;;;;;;;10.73;8.38;;;7.00;93.70;;;;;;5051010;28;20218;-86
2023/10/18 06:37:21;;;;;;;10.20;9.10;;;7.00;93.70;;;;;;5051780;28;20218;-87
2023/10/18 06:39:51;;;;;;;13.63;9.70;;;7.00;94.00;;;;;;5053024;28;20706;-88
2023/10/18 06:42:21;;;;;;;18.05;9.23;;;7.00;93.70;;;;;;5053173;28;20298;-88
2023/10/18 06:45:10;;;;;;;17.77;11.23;;;7.00;93.00;;;;;;5052937;28;20194;-88
2023/10/18 06:47:44;;;;;;;15.85;9.57;;;7.00;93.10;;;;;;5053123;28;20226;-88
2023/10/18 06:50:11;;;;;;;11.75;9.48;;;6.90;93.40;;;;;;5052822;28;20190;-88
2023/10/18 06:52:44;;;;;;;22.85;14.40;;;6.90;94.20;;;;;;5053237;28;20222;-87
2023/10/18 06:55:16;;;;;;;12.35;10.23;;;6.90;94.70;;;;;;5052820;28;20735;-88
2023/10/18 06:57:49;;;;;;;15.57;10.05;;;7.00;94.60;;;;;;5053344;28;20205;-88
2023/10/18 07:00:17;;;;;;;14.65;9.27;;;7.00;94.50;;;;;;5052882;28;20272;-88
2023/10/18 07:02:45;;;;;;;11.68;9.48;;;7.10;93.90;;;;;;5052777;28;20717;-88
2023/10/18 07:05:18;;;;;;;15.63;10.45;;;7.10;93.70;;;;;;5053058;28;20195;-88
2023/10/18 07:07:45;;;;;;;13.13;10.27;;;7.10;93.90;;;;;;5052792;28;20210;-87
2023/10/18 07:10:30;;;;;;;12.27;10.30;;;7.20;94.10;;;;;;5053114;28;20191;-88
2023/10/18 07:13:02;;;;;;;13.48;8.82;;;7.20;94.10;;;;;;5053142;28;20240;-88
2023/10/18 07:15:35;;;;;;;10.80;8.60;;;7.30;94.00;;;;;;5052578;28;20219;-87
2023/10/18 07:18:09;;;;;;;9.88;7.60;;;7.30;93.90;;;;;;5052888;28;20589;-88
2023/10/18 07:20:39;;;;;;;8.73;7.82;;;7.40;93.80;;;;;;5052966;28;20178;-87
2023/10/18 07:23:10;;;;;;;10.70;8.15;;;7.50;93.60;;;;;;5052993;28;20203;-88
2023/10/18 07:25:38;;;;;;;8.45;6.70;;;7.60;93.50;;;;;;5052879;28;20290;-88
2023/10/18 07:28:09;;;;;;;10.45;8.40;;;7.60;93.10;;;;;;5052854;28;20195;-88
2023/10/18 07:30:42;;;;;;;10.02;7.97;;;7.70;92.60;;;;;;5056440;28;20236;-88
2023/10/18 07:33:10;;;;;;;11.40;7.82;;;7.70;92.30;;;;;;5056626;28;20187;-88
2023/10/18 07:35:39;;;;;;;11.18;7.72;;;7.70;91.90;;;;;;5056535;28;20566;-88
2023/10/18 07:38:09;;;;;;;10.23;7.30;;;7.70;91.80;;;;;;5056209;28;20197;-88
2023/10/18 07:40:40;;;;;;;9.35;7.63;;;7.80;91.90;;;;;;5056240;28;20196;-88
2023/10/18 07:43:12;;;;;;;10.45;8.30;;;7.90;92.10;;;;;;5056527;28;20610;-89
2023/10/18 07:45:40;;;;;;;9.40;7.10;;;7.90;92.20;;;;;;5056482;28;20257;-88
2023/10/18 07:48:11;;;;;;;8.85;7.15;;;8.00;92.30;;;;;;5055459;28;20273;-88
2023/10/18 07:50:49;;;;;;;9.88;8.07;;;8.10;92.30;;;;;;5056400;28;20175;-88
2023/10/18 07:53:20;;;;;;;9.00;7.05;;;8.20;92.00;;;;;;5056471;28;20265;-89
2023/10/18 07:55:48;;;;;;;9.50;8.20;;;8.30;91.50;;;;;;5055870;28;20665;-88
2023/10/18 07:58:22;;;;;;;11.00;8.55;;;8.30;91.00;;;;;;5056244;28;20277;-88
2023/10/18 08:03:30;;;;;;;9.02;7.25;;;8.40;90.30;;;;;;5055541;28;20523;-88
2023/10/18 08:05:58;;;;;;;24.10;7.70;;;8.40;90.40;;;;;;5056068;28;20282;-88
2023/10/18 08:08:25;;;;;;;8.43;7.53;;;8.50;90.40;;;;;;5055678;28;20707;-88
2023/10/18 08:10:54;;;;;;;13.77;9.15;;;8.50;90.50;;;;;;5055957;28;20191;-88
2023/10/18 08:13:26;;;;;;;9.98;8.20;;;8.60;90.70;;;;;;5055630;28;20198;-88
2023/10/18 08:15:54;;;;;;;10.40;8.52;;;8.60;90.60;;;;;;5055980;28;20214;-88
2023/10/18 08:18:39;;;;;;;8.75;6.97;;;8.60;90.40;;;;;;5055827;28;20198;-88
2023/10/18 08:21:07;;;;;;;11.00;7.80;;;8.60;89.80;;;;;;5055816;28;20261;-89
2023/10/18 08:23:36;;;;;;;7.25;6.50;;;8.60;89.50;;;;;;5055618;28;20226;-88
2023/10/18 08:26:06;;;;;;;10.40;7.68;;;8.70;89.00;;;;;;5055562;28;20248;-88
2023/10/18 08:28:39;;;;;;;8.55;7.13;;;8.70;88.80;;;;;;5055299;28;20195;-89
2023/10/18 08:31:16;;;;;;;10.40;8.35;;;8.70;88.20;;;;;;5055224;28;20206;-89
2023/10/18 08:33:43;;;;;;;9.18;6.90;;;8.80;88.20;;;;;;5055457;28;20261;-89
2023/10/18 08:36:13;;;;;;;8.48;7.38;;;8.80;88.40;;;;;;5055137;28;20290;-89
2023/10/18 08:38:42;;;;;;;9.68;7.60;;;8.90;88.20;;;;;;5055376;28;20195;-89
2023/10/18 08:41:13;;;;;;;10.52;7.57;;;9.00;87.50;;;;;;5053724;28;20654;-89
2023/10/18 08:43:53;;;;;;;9.65;8.00;;;9.10;86.30;;;;;;5055341;28;20515;-87
2023/10/18 08:46:26;;;;;;;9.13;7.35;;;9.20;86.00;;;;;;5054990;28;20225;-89
2023/10/18 08:48:55;;;;;;;8.75;7.55;;;9.30;85.30;;;;;;5054699;28;20266;-89
2023/10/18 08:51:27;;;;;;;8.32;6.50;;;9.40;85.10;;;;;;5055215;28;20191;-88
2023/10/18 08:53:55;;;;;;;8.15;7.35;;;9.40;84.80;;;;;;5055240;28;20266;-89
2023/10/18 08:56:32;;;;;;;11.13;7.97;;;9.60;85.20;;;;;;5055113;28;20279;-89
2023/10/18 08:59:11;;;;;;;10.20;7.45;;;9.90;84.10;;;;;;5054713;28;20218;-89
2023/10/18 09:01:37;;;;;;;8.30;7.35;;;10.10;82.10;;;;;;5055237;28;20195;-89
2023/10/18 09:04:07;;;;;;;9.20;7.63;;;10.50;80.80;;;;;;5054529;28;20297;-89
2023/10/18 09:06:33;;;;;;;10.25;8.75;;;10.80;80.20;;;;;;5054573;28;20191;-89
2023/10/18 09:09:08;;;;;;;10.00;9.00;;;11.00;77.70;;;;;;5054473;28;20278;-89
2023/10/18 09:11:37;;;;;;;9.43;8.43;;;11.10;74.10;;;;;;5054904;28;20285;-89
2023/10/18 09:14:08;;;;;;;10.77;9.68;;;10.90;73.00;;;;;;5054441;28;20198;-89
2023/10/18 09:16:39;;;;;;;10.73;8.45;;;11.00;74.60;;;;;;5054428;28;20187;-89
2023/10/18 09:19:07;;;;;;;8.60;7.38;;;11.30;73.30;;;;;;5054564;28;20201;-89
2023/10/18 09:21:42;;;;;;;9.10;7.80;;;11.90;72.50;;;;;;5054496;28;20203;-89
2023/10/18 09:24:09;;;;;;;10.93;7.50;;;12.70;69.50;;;;;;5054317;28;20274;-90
2023/10/18 09:26:40;;;;;;;8.53;7.30;;;13.40;68.20;;;;;;5054572;28;20469;-89
2023/10/18 09:29:09;;;;;;;8.17;6.90;;;14.00;66.40;;;;;;5054178;28;20927;-89
2023/10/18 09:31:50;;;;;;;6.90;5.87;;;14.70;62.50;;;;;;5054458;28;20799;-90
2023/10/18 09:34:17;;;;;;;7.20;6.50;;;;;;;;;;5053877;28;20422;-90
2023/10/18 09:36:53;;;;;;;7.90;6.70;;;;;;;;;;5053915;28;20451;-90
2023/10/18 09:39:24;;;;;;;6.47;5.53;;;;;;;;;;5054296;28;20453;-89
2023/10/18 09:41:52;;;;;;;7.40;6.00;;;;;;;;;;5054383;28;20420;-90
2023/10/18 09:44:20;;;;;;;6.80;5.67;;;16.00;59.20;;;;;;5054173;28;20473;-90
2023/10/18 09:46:49;;;;;;;7.67;6.30;;;23.40;39.10;;;;;;5053983;28;20935;-88
2023/10/18 09:49:23;;;;;;;7.57;6.87;;;;;;;;;;5054079;28;20620;-89
2023/10/18 09:51:54;;;;;;;8.13;5.80;;;;;;;;;;5053327;28;20471;-89
2023/10/18 09:54:23;;;;;;;5.50;5.00;;;;;;;;;;5054094;28;20480;-89
2023/10/18 09:56:54;;;;;;;7.13;5.57;;;;;;;;;;5053703;28;20437;-89
2023/10/18 09:59:27;;;;;;;7.10;6.40;;;;;;;;;;5054046;28;20421;-89
2023/10/18 10:01:57;;;;;;;6.10;5.40;;;;;;;;;;5053646;28;20957;-91
2023/10/18 10:04:32;;;;;;;7.70;4.07;;;;;;;;;;5053778;28;20479;-90
2023/10/18 10:07:27;;;;;;;5.80;5.30;;;;;;;;;;5053500;28;20425;-88
2023/10/18 10:09:48;;;;;;;6.97;6.27;;;;;;;;;;5053184;28;20483;-88
2023/10/18 10:12:17;;;;;;;5.93;5.33;;;;;;;;;;5053659;28;20527;-88
2023/10/18 10:14:45;;;;;;;7.73;5.53;;;;;;;;;;5053624;28;20777;-86
2023/10/18 10:17:15;;;;;;;6.03;5.43;;;;;;;;;;5053281;28;20516;-86
2023/10/18 10:19:46;;;;;;;5.40;4.97;;;;;;;;;;5053488;28;20440;-86
2023/10/18 10:22:17;;;;;;;6.20;5.60;;;;;;;;;;5053909;28;20823;-87
2023/10/18 10:24:45;;;;;;;6.40;5.30;;;;;;;;;;5053284;28;20499;-87
2023/10/18 10:27:41;;;;;;;4.60;4.20;;;;;;;;;;5053460;28;20437;-87
2023/10/18 10:30:20;;;;;;;5.17;4.67;;;;;;;;;;5053534;28;20421;-87
2023/10/18 10:32:48;;;;;;;6.53;5.87;;;;;;;;;;5053064;28;20939;-87
2023/10/18 10:35:16;;;;;;;5.30;4.80;;;;;;;;;;5053360;28;20777;-87
2023/10/18 10:37:49;;;;;;;6.13;5.60;;;;;;;;;;5053516;28;20520;-87
2023/10/18 10:40:35;;;;;;;7.33;5.53;;;;;;;;;;5053350;28;20495;-86
2023/10/18 10:43:03;;;;;;;5.77;5.27;;;;;;;;;;5053346;28;20417;-86
2023/10/18 10:45:35;;;;;;;6.27;5.67;;;;;;;;;;5053265;28;20473;-86
2023/10/18 10:48:30;;;;;;;5.73;5.20;;;;;;;;;;5053173;28;20551;-86
2023/10/18 10:51:06;;;;;;;6.10;5.50;;;;;;;;;;5016086;28;20485;-86
2023/10/18 10:53:35;;;;;;;7.23;6.50;;;;;;;;;;5053436;28;20482;-86
2023/10/18 10:56:16;;;;;;;8.03;7.33;;;;;;;;;;5053195;28;20776;-86
2023/10/18 10:58:44;;;;;;;7.73;6.90;;;;;;;;;;5053381;28;20483;-86
2023/10/18 11:01:31;;;;;;;7.73;7.10;;;;;;;;;;5053075;28;20435;-87
2023/10/18 11:03:59;;;;;;;7.73;6.57;;;;;;;;;;5054025;28;20421;-85
2023/10/18 11:06:33;;;;;;;7.67;6.20;;;;;;;;;;5057388;28;20537;-83
2023/10/18 11:09:00;;;;;;;6.80;6.10;;;;;;;;;;5055492;28;20440;-87
2023/10/18 11:11:27;;;;;;;7.07;6.37;;;;;;;;;;5056374;28;20445;-86
2023/10/18 11:13:57;;;;;;;6.80;6.10;;;;;;;;;;5049444;28;20444;-87
2023/10/18 11:16:25;;;;;;;8.40;6.70;;;;;;;;;;5053766;28;20433;-86
2023/10/18 11:18:53;;;;;;;8.20;6.60;;;;;;;;;;5055038;28;20445;-86
2023/10/18 11:21:24;;;;;;;6.60;5.90;;;;;;;;;;5055789;28;20440;-87
2023/10/18 11:23:56;;;;;;;7.00;5.80;;;;;;;;;;5056275;28;20915;-86
2023/10/18 11:26:25;;;;;;;7.30;6.50;;;;;;;;;;5055751;28;20823;-87
2023/10/18 11:28:56;;;;;;;6.53;5.87;;;;;;;;;;5056303;28;20437;-87
2023/10/18 11:31:26;;;;;;;7.63;6.93;;;;;;;;;;5054387;28;20472;-86
2023/10/18 11:33:59;;;;;;;7.27;6.57;;;;;;;;;;5055946;28;20807;-87
2023/10/18 11:36:28;;;;;;;7.20;6.50;;;;;;;;;;5055728;28;20516;-87
2023/10/18 11:39:17;;;;;;;6.77;6.03;;;;;;;;;;5055304;28;20429;-87
2023/10/18 11:41:45;;;;;;;6.73;6.03;;;;;;;;;;5055374;28;20508;-87
2023/10/18 11:44:16;;;;;;;8.13;7.33;;;;;;;;;;5055629;28;20921;-85
2023/10/18 11:46:46;;;;;;;7.03;6.40;;;;;;;;;;5055908;28;20472;-87
2023/10/18 11:49:16;;;;;;;6.70;5.67;;;;;;;;;;5055673;28;20985;-87
2023/10/18 11:51:45;;;;;;;6.70;6.10;;;;;;;;;;5055867;28;20479;-86
2023/10/18 11:54:13;;;;;;;8.33;6.73;;;;;;;;;;5056098;28;20527;-85
2023/10/18 11:56:40;;;;;;;6.37;5.37;;;;;;;;;;5055993;28;20437;-86
2023/10/18 11:59:07;;;;;;;6.50;5.90;;;;;;;;;;5055147;28;20441;-87
2023/10/18 12:01:35;;;;;;;6.27;5.63;;;;;;;;;;5055958;28;20465;-86
2023/10/18 12:04:06;;;;;;;6.77;6.00;;;;;;;;;;5055166;28;20487;-86
2023/10/18 12:06:35;;;;;;;7.63;6.50;;;;;;;;;;5055473;28;20464;-86
2023/10/18 12:11:47;;;;;;;6.37;5.60;;;;;;;;;;5055756;28;20424;-86
2023/10/18 12:14:14;;;;;;;5.73;5.20;;;;;;;;;;5055897;28;20437;-86
2023/10/18 12:16:42;;;;;;;7.93;5.30;;;;;;;;;;5055850;28;20903;-86
2023/10/18 12:19:10;;;;;;;6.07;5.47;;;;;;;;;;5055646;28;20429;-86
2023/10/18 12:21:38;;;;;;;7.00;6.13;;;;;;;;;;5055523;28;20923;-86
2023/10/18 12:24:07;;;;;;;7.20;6.50;;;;;;;;;;5055599;28;20418;-86
2023/10/18 12:26:35;;;;;;;8.07;6.77;;;;;;;;;;5053285;28;20477;-86
2023/10/18 12:29:05;;;;;;;7.00;6.30;;;;;;;;;;5055638;28;20441;-87
2023/10/18 12:31:38;;;;;;;7.27;6.57;;;;;;;;;;5055422;28;20441;-87
2023/10/18 12:34:08;;;;;;;7.40;6.13;;;;;;;;;;5055392;28;20433;-87
2023/10/18 12:36:38;;;;;;;7.53;6.70;;;;;;;;;;5055499;28;20858;-86
2023/10/18 12:39:09;;;;;;;7.50;6.60;;;;;;;;;;5055398;28;20499;-86
2023/10/18 12:41:39;;;;;;;6.93;6.30;;;;;;;;;;5055126;28;20973;-87
2023/10/18 12:44:11;;;;;;;7.60;6.80;;;;;;;;;;5055400;28;20752;-87
2023/10/18 12:46:41;;;;;;;11.13;5.80;;;;;;;;;;5054862;28;20495;-87
2023/10/18 12:49:10;;;;;;;7.00;6.17;;;;;;;;;;5054209;28;20552;-87
2023/10/18 12:51:41;;;;;;;10.20;6.10;;;;;;;;;;5055263;28;20480;-87
2023/10/18 12:54:19;;;;;;;8.03;5.10;;;;;;;;;;5055126;28;20475;-87
2023/10/18 12:56:56;;;;;;;7.30;6.13;;;;;;;;;;5054734;28;20429;-86
2023/10/18 12:59:27;;;;;;;6.30;5.00;;;;;;;;;;5054708;28;20417;-87
2023/10/18 13:02:00;;;;;;;7.07;4.83;;;;;;;;;;5054768;28;20992;-87
2023/10/18 13:04:27;;;;;;;6.50;5.80;;;;;;;;;;5054918;28;20430;-87
2023/10/18 13:06:54;;;;;;;5.80;5.03;;;;;;;;;;5054184;28;20488;-87
2023/10/18 13:09:23;;;;;;;5.73;5.10;;;;;;;;;;5054526;28;20491;-86
2023/10/18 13:12:00;;;;;;;5.77;4.93;;;;;;;;;;5054946;28;20457;-88
2023/10/18 13:14:30;;;;;;;9.47;5.40;;;;;;;;;;5054844;28;20425;-86
2023/10/18 13:16:58;;;;;;;6.70;5.87;;;;;;;;;;5054388;28;20456;-87
2023/10/18 13:19:27;;;;;;;6.27;5.30;;;;;;;;;;5054585;28;20442;-87
2023/10/18 13:21:54;;;;;;;6.23;5.40;;;;;;;;;;5053919;28;21003;-87
2023/10/18 13:24:31;;;;;;;7.00;5.17;;;;;;;;;;5054235;28;20525;-87
2023/10/18 13:27:00;;;;;;;6.43;5.80;;;;;;;;;;5053692;28;20461;-87
2023/10/18 13:29:30;;;;;;;5.67;5.00;;;;;;;;;;5054058;28;20936;-87
2023/10/18 13:31:58;;;;;;;7.03;6.33;;;;;;;;;;5054388;28;20837;-87
2023/10/18 13:34:32;;;;;;;6.77;5.67;;;;;;;;;;5054051;28;20479;-87
2023/10/18 13:37:03;;;;;;;6.53;5.83;;;;;;;;;;5054485;28;20434;-87
2023/10/18 13:39:32;;;;;;;8.93;5.23;;;;;;;;;;5053826;28;20842;-87
2023/10/18 13:42:00;;;;;;;7.57;5.70;;;;;;;;;;5053933;28;20438;-87
2023/10/18 13:44:29;;;;;;;6.70;6.00;;;;;;;;;;5054088;28;20447;-87
2023/10/18 13:46:57;;;;;;;7.80;5.40;;;;;;;;;;5053737;28;20469;-88
2023/10/18 13:49:25;;;;;;;7.60;5.23;;;;;;;;;;5053164;28;20484;-87
2023/10/18 13:51:53;;;;;;;7.00;5.23;;;;;;;;;;5053764;28;20520;-87